Zodiac — WTH5653 — position and weather

sailwx.info

Track history (hours):
 
Tides and Currents Weather Stations Pressure Air Temp Water Temp Dewpoint Dewpoint Depression Visibility Wind Speed Wind Dir Waves Ship Positions

Zodiac

Ship's website: http://www.schoonerzodiac.com/

Owner: VESSEL ZODIAC CORP, Bellingham, WA. More information available from US FCC via Universal Licensing System and Coast Guard Vessel Documentation Center.

Last reported at 2020-Sep-26 06:14 UTC. Time now 2020-Sep-26 07:29 UTC.
Position N 48°43' W 122°31'.

Length 34 m.

Type: Sailing vessel. MMSI: 366968070.

Date/timePositionNaut miles runAvg speedWind from/ knotsBaromVisibWave heightAir tempDewpointWater temp
2020-Sep-26 06:14N 48°43' W 122°31'0 0.0
2020-Sep-26 05:30N 48°43' W 122°31'0 0.0
2020-Sep-26 00:26N 48°43' W 122°31'0 0.0
2020-Sep-25 23:28N 48°43' W 122°31'0 0.0
2020-Sep-25 20:30N 48°43' W 122°31'0 0.0
2020-Sep-25 19:28N 48°43' W 122°31'0 0.0
2020-Sep-25 14:29N 48°43' W 122°31'0 0.0
2020-Sep-25 13:57N 48°43' W 122°31'0 0.0
2020-Sep-25 13:30N 48°43' W 122°31'0 0.0
2020-Sep-25 08:27N 48°43' W 122°31'0 0.0
2020-Sep-25 07:30N 48°43' W 122°31'0 0.0
2020-Sep-25 06:59N 48°43' W 122°31'0 0.0
2020-Sep-25 05:55N 48°43' W 122°31'0 0.0
2020-Sep-25 03:35N 48°43' W 122°31'0 0.0
2020-Sep-25 00:28N 48°43' W 122°31'0 0.0
2020-Sep-24 16:57N 48°43' W 122°31'0 0.0
2020-Sep-24 15:40N 48°43' W 122°31'0 0.0
2020-Sep-24 15:30N 48°43' W 122°31'0 0.0
2020-Sep-24 13:55N 48°43' W 122°31'0 0.0
2020-Sep-24 07:27N 48°43' W 122°31'0 0.0
2020-Sep-24 06:27N 48°43' W 122°31'0 0.0
2020-Sep-24 05:30N 48°43' W 122°31'0 0.0
2020-Sep-24 02:58N 48°43' W 122°31'0 0.0
2020-Sep-24 02:24N 48°43' W 122°31'0 0.0
2020-Sep-24 01:51N 48°43' W 122°31'0 0.0
2020-Sep-23 21:30N 48°43' W 122°31'0 0.0
2020-Sep-23 19:58N 48°43' W 122°31'0 0.0
2020-Sep-23 19:23N 48°43' W 122°31'0 0.0
2020-Sep-23 18:56N 48°43' W 122°31'0 0.0
2020-Sep-23 15:00N 48°43' W 122°31'0 0.0
2020-Sep-23 11:37N 48°43' W 122°31'0 0.0
2020-Sep-23 10:48N 48°43' W 122°31'0 0.0
2020-Sep-23 10:23N 48°43' W 122°31'0 0.0
2020-Sep-22 07:12N 48°43' W 122°31'0 0.0
2020-Sep-22 07:00N 48°43' W 122°31'0 0.0
2020-Sep-22 04:54N 48°43' W 122°31'0 0.0
2020-Sep-21 23:00N 48°43' W 122°31'0 0.0
2020-Sep-21 22:00N 48°43' W 122°31'2 3.6
2020-Sep-21 21:29N 48°42' W 122°32'2 2.1
2020-Sep-21 20:30N 48°40' W 122°33'4 1.2
2020-Sep-21 17:30N 48°39' W 122°39'12 8.0
2020-Sep-21 16:00N 48°46' W 122°54'0 0.0
2020-Sep-21 14:00N 48°46' W 122°54'0 0.0
2020-Sep-21 10:30N 48°46' W 122°54'0 0.0
2020-Sep-21 08:31N 48°46' W 122°54'0 0.0
2020-Sep-21 07:31N 48°46' W 122°54'0 0.0
2020-Sep-21 05:30N 48°46' W 122°54'0 0.0
2020-Sep-21 01:30N 48°46' W 122°54'0 0.0
2020-Sep-21 00:30N 48°46' W 122°54'0 0.0
2020-Sep-20 23:30N 48°46' W 122°54'8 1.9
2020-Sep-20 19:30N 48°41' W 122°44'2 3.6
2020-Sep-20 19:00N 48°39' W 122°44'6 5.7
2020-Sep-20 18:00N 48°35' W 122°50'3 5.7
2020-Sep-20 17:30N 48°33' W 122°51'0 0.0
2020-Sep-20 17:00N 48°33' W 122°51'0 0.0
2020-Sep-20 16:30N 48°33' W 122°51'0 0.0
2020-Sep-20 16:00N 48°33' W 122°51'0 0.0
2020-Sep-20 14:30N 48°33' W 122°51'0 0.0
2020-Sep-20 12:31N 48°33' W 122°51'0 0.0
2020-Sep-20 12:00N 48°33' W 122°51'0 0.0
2020-Sep-20 11:30N 48°33' W 122°51'0 0.0
2020-Sep-20 10:30N 48°33' W 122°51'0 0.0
2020-Sep-20 08:30N 48°33' W 122°51'0 0.0
2020-Sep-20 07:00N 48°33' W 122°51'0 0.0
2020-Sep-20 06:00N 48°33' W 122°51'0 0.0
2020-Sep-20 00:00N 48°33' W 122°51'4 1.1
2020-Sep-19 20:30N 48°36' W 122°48'6 4.3
2020-Sep-19 19:00N 48°38' W 122°39'5 3.5
2020-Sep-19 17:30N 48°42' W 122°33'2 1.8
2020-Sep-19 16:15N 48°43' W 122°31'0 0.0
2020-Sep-19 14:00N 48°43' W 122°31'0 0.0
2020-Sep-19 10:59N 48°43' W 122°31'0 0.0
2020-Sep-19 09:57N 48°43' W 122°31'0 0.0
2020-Sep-19 07:30N 48°43' W 122°31'0 0.0
2020-Sep-19 06:59N 48°43' W 122°31'0 0.0
2020-Sep-19 04:53N 48°43' W 122°31'0 0.0
2020-Sep-19 04:25N 48°43' W 122°31'0 0.0
2020-Sep-19 02:30N 48°43' W 122°31'0 0.0
2020-Sep-19 01:30N 48°43' W 122°31'0 0.0
2020-Sep-18 23:30N 48°43' W 122°31'0 0.0
2020-Sep-18 22:30N 48°43' W 122°31'0 0.0
2020-Sep-18 17:58N 48°43' W 122°31'0 0.0
2020-Sep-18 15:00N 48°43' W 122°31'0 0.0
2020-Sep-18 13:30N 48°43' W 122°31'0 0.0
2020-Sep-18 10:30N 48°43' W 122°31'0 0.0
2020-Sep-18 07:30N 48°43' W 122°31'0 0.0
2020-Sep-18 07:00N 48°43' W 122°31'0 0.0
2020-Sep-18 04:52N 48°43' W 122°31'0 0.0
2020-Sep-18 03:00N 48°43' W 122°31'0 0.0
2020-Sep-18 01:29N 48°43' W 122°31'0 0.0
2020-Sep-18 00:48N 48°43' W 122°31'0 0.0
2020-Sep-17 19:11N 48°43' W 122°31'0 0.0
2020-Sep-17 17:00N 48°43' W 122°31'0 0.0
2020-Sep-17 15:27N 48°43' W 122°31'0 0.0
2020-Sep-17 14:28N 48°43' W 122°31'0 0.0
2020-Sep-17 12:00N 48°43' W 122°31'0 0.0
2020-Sep-17 07:58N 48°43' W 122°31'0 0.0
2020-Sep-17 07:21N 48°43' W 122°31'0 0.0
2020-Sep-17 07:00N 48°43' W 122°31'0 0.0
2020-Sep-17 06:28N 48°43' W 122°31'0 0.0
2020-Sep-17 03:30N 48°43' W 122°31'0 0.2
2020-Sep-17 03:00N 48°43' W 122°31'2 1.4
2020-Sep-17 01:30N 48°44' W 122°34'2 3.7
2020-Sep-17 01:00N 48°44' W 122°31'1 1.0
2020-Sep-17 00:30N 48°44' W 122°31'0 0.8
2020-Sep-17 00:00N 48°43' W 122°31'0 0.0
2020-Sep-16 20:30N 48°43' W 122°31'0 0.0
2020-Sep-16 17:35N 48°43' W 122°31'0 0.0
2020-Sep-16 17:00N 48°43' W 122°31'0 0.0
2020-Sep-16 16:30N 48°43' W 122°31'0 0.0
2020-Sep-16 12:00N 48°43' W 122°31'0 0.0
2020-Sep-16 07:00N 48°43' W 122°31'  
Track history (hours):
 
Tides and Currents Weather Stations Pressure Air Temp Water Temp Dewpoint Dewpoint Depression Visibility Wind Speed Wind Dir Waves Ship Positions

Zodiac

Ship's website: http://www.schoonerzodiac.com/

Owner: VESSEL ZODIAC CORP, Bellingham, WA. More information available from US FCC via Universal Licensing System and Coast Guard Vessel Documentation Center.

Last reported at 2020-Sep-26 06:14 UTC. Time now 2020-Sep-26 07:29 UTC.
Position N 48°43' W 122°31'.

Length 34 m.

Type: Sailing vessel. MMSI: 366968070.

Date/timePositionNaut miles runAvg speedWind from/ knotsBaromVisibWave heightAir tempDewpointWater temp
2020-Sep-26 06:14N 48°43' W 122°31'0 0.0
2020-Sep-26 05:30N 48°43' W 122°31'0 0.0
2020-Sep-26 00:26N 48°43' W 122°31'0 0.0
2020-Sep-25 23:28N 48°43' W 122°31'0 0.0
2020-Sep-25 20:30N 48°43' W 122°31'0 0.0
2020-Sep-25 19:28N 48°43' W 122°31'0 0.0
2020-Sep-25 14:29N 48°43' W 122°31'0 0.0
2020-Sep-25 13:57N 48°43' W 122°31'0 0.0
2020-Sep-25 13:30N 48°43' W 122°31'0 0.0
2020-Sep-25 08:27N 48°43' W 122°31'0 0.0
2020-Sep-25 07:30N 48°43' W 122°31'0 0.0
2020-Sep-25 06:59N 48°43' W 122°31'0 0.0
2020-Sep-25 05:55N 48°43' W 122°31'0 0.0
2020-Sep-25 03:35N 48°43' W 122°31'0 0.0
2020-Sep-25 00:28N 48°43' W 122°31'0 0.0
2020-Sep-24 16:57N 48°43' W 122°31'0 0.0
2020-Sep-24 15:40N 48°43' W 122°31'0 0.0
2020-Sep-24 15:30N 48°43' W 122°31'0 0.0
2020-Sep-24 13:55N 48°43' W 122°31'0 0.0
2020-Sep-24 07:27N 48°43' W 122°31'0 0.0
2020-Sep-24 06:27N 48°43' W 122°31'0 0.0
2020-Sep-24 05:30N 48°43' W 122°31'0 0.0
2020-Sep-24 02:58N 48°43' W 122°31'0 0.0
2020-Sep-24 02:24N 48°43' W 122°31'0 0.0
2020-Sep-24 01:51N 48°43' W 122°31'0 0.0
2020-Sep-23 21:30N 48°43' W 122°31'0 0.0
2020-Sep-23 19:58N 48°43' W 122°31'0 0.0
2020-Sep-23 19:23N 48°43' W 122°31'0 0.0
2020-Sep-23 18:56N 48°43' W 122°31'0 0.0
2020-Sep-23 15:00N 48°43' W 122°31'0 0.0
2020-Sep-23 11:37N 48°43' W 122°31'0 0.0
2020-Sep-23 10:48N 48°43' W 122°31'0 0.0
2020-Sep-23 10:23N 48°43' W 122°31'0 0.0
2020-Sep-22 07:12N 48°43' W 122°31'0 0.0
2020-Sep-22 07:00N 48°43' W 122°31'0 0.0
2020-Sep-22 04:54N 48°43' W 122°31'0 0.0
2020-Sep-21 23:00N 48°43' W 122°31'0 0.0
2020-Sep-21 22:00N 48°43' W 122°31'2 3.6
2020-Sep-21 21:29N 48°42' W 122°32'2 2.1
2020-Sep-21 20:30N 48°40' W 122°33'4 1.2
2020-Sep-21 17:30N 48°39' W 122°39'12 8.0
2020-Sep-21 16:00N 48°46' W 122°54'0 0.0
2020-Sep-21 14:00N 48°46' W 122°54'0 0.0
2020-Sep-21 10:30N 48°46' W 122°54'0 0.0
2020-Sep-21 08:31N 48°46' W 122°54'0 0.0
2020-Sep-21 07:31N 48°46' W 122°54'0 0.0
2020-Sep-21 05:30N 48°46' W 122°54'0 0.0
2020-Sep-21 01:30N 48°46' W 122°54'0 0.0
2020-Sep-21 00:30N 48°46' W 122°54'0 0.0
2020-Sep-20 23:30N 48°46' W 122°54'8 1.9
2020-Sep-20 19:30N 48°41' W 122°44'2 3.6
2020-Sep-20 19:00N 48°39' W 122°44'6 5.7
2020-Sep-20 18:00N 48°35' W 122°50'3 5.7
2020-Sep-20 17:30N 48°33' W 122°51'0 0.0
2020-Sep-20 17:00N 48°33' W 122°51'0 0.0
2020-Sep-20 16:30N 48°33' W 122°51'0 0.0
2020-Sep-20 16:00N 48°33' W 122°51'0 0.0
2020-Sep-20 14:30N 48°33' W 122°51'0 0.0
2020-Sep-20 12:31N 48°33' W 122°51'0 0.0
2020-Sep-20 12:00N 48°33' W 122°51'0 0.0
2020-Sep-20 11:30N 48°33' W 122°51'0 0.0
2020-Sep-20 10:30N 48°33' W 122°51'0 0.0
2020-Sep-20 08:30N 48°33' W 122°51'0 0.0
2020-Sep-20 07:00N 48°33' W 122°51'0 0.0
2020-Sep-20 06:00N 48°33' W 122°51'0 0.0
2020-Sep-20 00:00N 48°33' W 122°51'4 1.1
2020-Sep-19 20:30N 48°36' W 122°48'6 4.3
2020-Sep-19 19:00N 48°38' W 122°39'5 3.5
2020-Sep-19 17:30N 48°42' W 122°33'2 1.8
2020-Sep-19 16:15N 48°43' W 122°31'0 0.0
2020-Sep-19 14:00N 48°43' W 122°31'0 0.0
2020-Sep-19 10:59N 48°43' W 122°31'0 0.0
2020-Sep-19 09:57N 48°43' W 122°31'0 0.0
2020-Sep-19 07:30N 48°43' W 122°31'0 0.0
2020-Sep-19 06:59N 48°43' W 122°31'0 0.0
2020-Sep-19 04:53N 48°43' W 122°31'0 0.0
2020-Sep-19 04:25N 48°43' W 122°31'0 0.0
2020-Sep-19 02:30N 48°43' W 122°31'0 0.0
2020-Sep-19 01:30N 48°43' W 122°31'0 0.0
2020-Sep-18 23:30N 48°43' W 122°31'0 0.0
2020-Sep-18 22:30N 48°43' W 122°31'0 0.0
2020-Sep-18 17:58N 48°43' W 122°31'0 0.0
2020-Sep-18 15:00N 48°43' W 122°31'0 0.0
2020-Sep-18 13:30N 48°43' W 122°31'0 0.0
2020-Sep-18 10:30N 48°43' W 122°31'0 0.0
2020-Sep-18 07:30N 48°43' W 122°31'0 0.0
2020-Sep-18 07:00N 48°43' W 122°31'0 0.0
2020-Sep-18 04:52N 48°43' W 122°31'0 0.0
2020-Sep-18 03:00N 48°43' W 122°31'0 0.0
2020-Sep-18 01:29N 48°43' W 122°31'0 0.0
2020-Sep-18 00:48N 48°43' W 122°31'0 0.0
2020-Sep-17 19:11N 48°43' W 122°31'0 0.0
2020-Sep-17 17:00N 48°43' W 122°31'0 0.0
2020-Sep-17 15:27N 48°43' W 122°31'0 0.0
2020-Sep-17 14:28N 48°43' W 122°31'0 0.0
2020-Sep-17 12:00N 48°43' W 122°31'0 0.0
2020-Sep-17 07:58N 48°43' W 122°31'0 0.0
2020-Sep-17 07:21N 48°43' W 122°31'0 0.0
2020-Sep-17 07:00N 48°43' W 122°31'0 0.0
2020-Sep-17 06:28N 48°43' W 122°31'0 0.0
2020-Sep-17 03:30N 48°43' W 122°31'0 0.2
2020-Sep-17 03:00N 48°43' W 122°31'2 1.4
2020-Sep-17 01:30N 48°44' W 122°34'2 3.7
2020-Sep-17 01:00N 48°44' W 122°31'1 1.0
2020-Sep-17 00:30N 48°44' W 122°31'0 0.8
2020-Sep-17 00:00N 48°43' W 122°31'0 0.0
2020-Sep-16 20:30N 48°43' W 122°31'0 0.0
2020-Sep-16 17:35N 48°43' W 122°31'0 0.0
2020-Sep-16 17:00N 48°43' W 122°31'0 0.0
2020-Sep-16 16:30N 48°43' W 122°31'0 0.0
2020-Sep-16 12:00N 48°43' W 122°31'0 0.0
2020-Sep-16 07:00N 48°43' W 122°31'  

Dump ship's entire track history